Time;durP1;ratioP1;P1;durP2;ratioP2;P2;SDS_P1;SDS_P2;PMS_P1;PMS_P2;Temp;Humidity;BMP_temperature;BMP_pressure;BME280_temperature;BME280_humidity;BME280_pressure;Samples;Min_cycle;Max_cycle;Signal;HPM_P1;HPM_P2
2023/07/25 00:00:33;;;;;;;10.52;9.65;;;;;;;;;;5007006;28;20704;-73
2023/07/25 00:02:59;;;;;;;10.10;9.32;;;;;;;;;;5006680;28;20394;-73
2023/07/25 00:05:25;;;;;;;11.55;9.45;;;;;;;;;;5005658;28;20120;-73
2023/07/25 00:07:50;;;;;;;10.15;9.35;;;;;;;;;;5006718;28;20041;-73
2023/07/25 00:10:18;;;;;;;9.95;9.25;;;;;;;;;;5006262;28;20042;-73
2023/07/25 00:12:44;;;;;;;10.40;9.50;;;;;;;;;;5005584;28;20041;-73
2023/07/25 00:15:10;;;;;;;10.43;9.38;;;;;;;;;;5006619;28;20481;-73
2023/07/25 00:17:36;;;;;;;9.88;9.07;;;;;;;;;;5005997;28;20034;-73
2023/07/25 00:20:01;;;;;;;10.13;9.43;;;;;;;;;;5005324;28;20100;-73
2023/07/25 00:22:27;;;;;;;10.23;9.40;;;;;;;;;;5006512;28;20752;-73
2023/07/25 00:24:52;;;;;;;10.85;9.95;;;;;;;;;;5006176;28;20065;-73
2023/07/25 00:27:18;;;;;;;11.15;9.35;;;;;;;;;;5006417;28;20449;-74
2023/07/25 00:29:44;;;;;;;10.27;9.48;;;;;;;;;;5001627;28;20092;-73
2023/07/25 00:32:11;;;;;;;9.57;8.77;;;;;;;;;;5005694;28;20112;-73
2023/07/25 00:34:36;;;;;;;9.40;8.60;;;;;;;;;;5002676;28;20715;-73
2023/07/25 00:37:02;;;;;;;9.80;9.00;;;;;;;;;;5003966;28;20126;-73
2023/07/25 00:39:28;;;;;;;9.52;8.80;;;;;;;;;;5005687;28;20038;-73
2023/07/25 00:41:53;;;;;;;10.95;9.80;;;;;;;;;;4996454;28;20447;-73
2023/07/25 00:44:19;;;;;;;10.25;9.40;;;;;;;;;;5000531;28;20149;-73
2023/07/25 00:46:46;;;;;;;10.05;9.00;;;;;;;;;;4998861;28;20109;-73
2023/07/25 00:49:11;;;;;;;9.82;9.02;;;;;;;;;;5003357;28;20156;-73
2023/07/25 00:51:37;;;;;;;10.30;9.35;;;;;;;;;;5004652;28;20096;-73
2023/07/25 00:54:03;;;;;;;9.27;8.45;;;;;;;;;;5003433;28;20046;-73
2023/07/25 00:56:29;;;;;;;9.15;8.35;;;;;;;;;;5003931;28;20041;-73
2023/07/25 00:58:54;;;;;;;10.25;9.45;;;;;;;;;;5005574;28;20511;-73
2023/07/25 01:01:21;;;;;;;9.93;9.15;;;;;;;;;;5004495;28;20045;-73
2023/07/25 01:03:48;;;;;;;10.45;9.55;;;;;;;;;;5003258;28;20045;-73
2023/07/25 01:06:15;;;;;;;9.77;8.95;;;;;;;;;;5005753;28;20045;-73
2023/07/25 01:08:52;;;;;;;9.55;8.75;;;;;;;;;;5003062;28;20525;-73
2023/07/25 01:11:19;;;;;;;9.88;9.10;;;;;;;;;;5005814;28;20073;-73
2023/07/25 01:13:45;;;;;;;9.20;8.30;;;;;;;;;;5003371;28;20052;-73
2023/07/25 01:16:14;;;;;;;9.43;8.68;;;;;;;;;;5004453;28;20093;-73
2023/07/25 01:18:41;;;;;;;9.25;8.40;;;;;;;;;;5005026;28;20033;-73
2023/07/25 01:21:07;;;;;;;9.95;9.05;;;;;;;;;;5005391;28;20037;-73
2023/07/25 01:23:33;;;;;;;9.32;8.52;;;;;;;;;;5002851;28;20060;-73
2023/07/25 01:25:59;;;;;;;10.30;9.35;;;;;;;;;;5000802;28;20041;-73
2023/07/25 01:28:25;;;;;;;9.50;8.57;;;;;;;;;;5005013;28;20109;-73
2023/07/25 01:30:51;;;;;;;9.65;8.77;;;;;;;;;;5005492;28;20044;-73
2023/07/25 01:33:16;;;;;;;10.30;9.27;;;;;;;;;;5004217;28;20037;-73
2023/07/25 01:35:42;;;;;;;10.27;9.27;;;;;;;;;;5003337;28;20080;-73
2023/07/25 01:38:07;;;;;;;10.60;9.80;;;;;;;;;;5005079;28;20041;-73
2023/07/25 01:40:33;;;;;;;11.68;9.85;;;;;;;;;;5003846;28;20492;-73
2023/07/25 01:42:59;;;;;;;10.98;9.98;;;;;;;;;;5004540;28;20084;-73
2023/07/25 01:45:24;;;;;;;11.00;10.07;;;;;;;;;;5004123;28;20041;-73
2023/07/25 01:47:50;;;;;;;10.40;9.65;;;;;;;;;;5005149;28;20526;-73
2023/07/25 01:50:16;;;;;;;10.85;9.95;;;;;;;;;;5005100;28;20033;-73
2023/07/25 01:52:42;;;;;;;10.10;9.40;;;;;;;;;;5004245;28;20502;-73
2023/07/25 01:55:08;;;;;;;10.70;9.82;;;;;;;;;;5003029;28;20068;-73
2023/07/25 01:57:34;;;;;;;10.88;9.55;;;;;;;;;;5005287;28;20030;-73
2023/07/25 02:00:00;;;;;;;11.10;10.10;;;;;;;;;;5001655;28;20041;-73
2023/07/25 02:02:25;;;;;;;10.65;9.85;;;;;;;;;;5004351;28;20037;-73
2023/07/25 02:04:51;;;;;;;10.20;9.27;;;;;;;;;;5002495;28;20650;-73
2023/07/25 02:07:16;;;;;;;10.60;9.80;;;;;;;;;;5003687;28;20184;-73
2023/07/25 02:09:42;;;;;;;9.77;9.07;;;;;;;;;;5000205;28;20442;-73
2023/07/25 02:12:08;;;;;;;9.98;9.27;;;;;;;;;;5003880;28;20037;-73
2023/07/25 02:14:34;;;;;;;10.55;9.63;;;;;;;;;;5003317;28;20038;-73
2023/07/25 02:16:59;;;;;;;10.75;9.98;;;;;;;;;;5002546;28;20026;-73
2023/07/25 02:19:25;;;;;;;11.18;10.18;;;;;;;;;;5002708;28;20041;-73
2023/07/25 02:21:51;;;;;;;10.38;9.48;;;;;;;;;;5003516;28;20561;-73
2023/07/25 02:24:16;;;;;;;10.52;9.63;;;;;;;;;;5001011;28;20449;-73
2023/07/25 02:26:42;;;;;;;10.88;9.98;;;;;;;;;;5004373;28;20041;-73
2023/07/25 02:29:07;;;;;;;10.35;9.55;;;;;;;;;;5003741;28;20034;-73
2023/07/25 02:31:33;;;;;;;10.35;9.55;;;;;;;;;;5003841;28;20148;-73
2023/07/25 02:33:58;;;;;;;10.85;9.73;;;;;;;;;;4995755;28;20027;-73
2023/07/25 02:36:24;;;;;;;9.82;9.10;;;;;;;;;;4999595;28;20050;-73
2023/07/25 02:38:50;;;;;;;10.20;9.50;;;;;;;;;;5003447;28;20041;-73
2023/07/25 02:41:16;;;;;;;10.75;9.85;;;;;;;;;;5008154;28;20033;-72
2023/07/25 02:43:41;;;;;;;10.65;9.85;;;;;;;;;;5007941;28;20051;-73
2023/07/25 02:46:07;;;;;;;10.75;9.90;;;;;;;;;;5008594;28;20489;-73
2023/07/25 02:48:32;;;;;;;10.75;9.95;;;;;;;;;;5008820;28;20406;-73
2023/07/25 02:51:00;;;;;;;10.75;9.85;;;;;;;;;;5005952;28;20040;-73
2023/07/25 02:53:25;;;;;;;10.63;9.82;;;;;;;;;;5006423;28;20042;-73
2023/07/25 02:55:51;;;;;;;11.18;10.15;;;;;;;;;;5008368;28;20034;-72
2023/07/25 02:58:17;;;;;;;11.55;10.45;;;;;;;;;;5005067;28;20041;-73
2023/07/25 03:00:42;;;;;;;11.20;10.30;;;;;;;;;;5005301;28;20033;-73
2023/07/25 03:03:08;;;;;;;11.18;10.18;;;;;;;;;;5005107;28;20038;-73
2023/07/25 03:05:33;;;;;;;12.20;11.10;;;;;;;;;;5003906;28;20042;-73
2023/07/25 03:07:59;;;;;;;11.80;10.75;;;;;;;;;;5001595;28;20161;-72
2023/07/25 03:10:25;;;;;;;12.07;10.82;;;;;;;;;;5004312;28;20439;-72
2023/07/25 03:12:52;;;;;;;11.25;10.30;;;;;;;;;;5003394;28;20051;-72
2023/07/25 03:15:18;;;;;;;11.02;10.02;;;;;;;;;;5004848;28;21365;-72
2023/07/25 03:17:44;;;;;;;11.88;10.88;;;;;;;;;;5002319;28;20041;-72
2023/07/25 03:20:10;;;;;;;12.75;11.55;;;;;;;;;;5001773;28;20033;-71
2023/07/25 03:22:35;;;;;;;12.38;11.27;;;;;;;;;;5002172;28;20041;-71
2023/07/25 03:25:02;;;;;;;12.40;11.20;;;;;;;;;;5004883;28;20030;-71
2023/07/25 03:27:27;;;;;;;11.82;10.73;;;;;;;;;;4986212;28;20052;-71
2023/07/25 03:29:53;;;;;;;12.07;11.07;;;;;;;;;;5002325;28;20037;-72
2023/07/25 03:32:19;;;;;;;11.68;10.65;;;;;;;;;;5000850;28;20049;-72
2023/07/25 03:34:44;;;;;;;11.90;10.90;;;;;;;;;;5001486;28;20026;-72
2023/07/25 03:37:10;;;;;;;11.70;10.63;;;;;;;;;;5002272;28;20357;-72
2023/07/25 03:39:36;;;;;;;12.65;11.40;;;;;;;;;;4999723;28;20650;-72
2023/07/25 03:42:02;;;;;;;11.25;10.25;;;;;;;;;;4986536;28;20034;-72
2023/07/25 03:44:28;;;;;;;11.25;10.00;;;;;;;;;;5003073;28;20046;-72
2023/07/25 03:46:53;;;;;;;11.63;10.43;;;;;;;;;;4986662;28;20096;-72
2023/07/25 03:49:19;;;;;;;12.82;10.85;;;;;;;;;;5002363;28;20076;-72
2023/07/25 03:51:45;;;;;;;11.35;10.35;;;;;;;;;;5002712;28;20064;-72
2023/07/25 03:54:10;;;;;;;10.60;9.70;;;;;;;;;;5000292;28;20077;-72
2023/07/25 03:56:36;;;;;;;11.38;10.32;;;;;;;;;;5003860;28;20502;-72
2023/07/25 03:59:01;;;;;;;11.73;10.70;;;;;;;;;;5003417;28;20125;-72
2023/07/25 04:01:28;;;;;;;11.68;10.77;;;;;;;;;;5003059;28;20080;-72
2023/07/25 04:03:54;;;;;;;14.40;11.43;;;;;;;;;;5003604;28;20026;-72
2023/07/25 04:06:20;;;;;;;11.77;10.77;;;;;;;;;;5003107;28;20096;-73
2023/07/25 04:08:45;;;;;;;11.60;10.60;;;;;;;;;;4999186;28;20100;-72
2023/07/25 04:11:13;;;;;;;13.07;11.15;;;;;;;;;;5005843;28;20038;-72
2023/07/25 04:13:39;;;;;;;11.00;10.10;;;;;;;;;;5006637;28;20033;-72
2023/07/25 04:16:04;;;;;;;11.75;10.75;;;;;;;;;;5004482;28;20041;-72
2023/07/25 04:18:30;;;;;;;11.57;10.63;;;;;;;;;;5006614;28;20041;-72
2023/07/25 04:20:56;;;;;;;11.10;10.20;;;;;;;;;;5003378;28;20038;-72
2023/07/25 04:23:22;;;;;;;11.30;10.43;;;;;;;;;;5003313;28;20449;-72
2023/07/25 04:25:48;;;;;;;10.95;10.15;;;;;;;;;;5006284;28;20048;-72
2023/07/25 04:28:14;;;;;;;10.80;9.93;;;;;;;;;;5006490;28;20034;-72
2023/07/25 04:30:39;;;;;;;11.52;10.32;;;;;;;;;;5005410;28;20040;-72
2023/07/25 04:33:05;;;;;;;15.95;10.75;;;;;;;;;;5004043;28;20037;-72
2023/07/25 04:35:32;;;;;;;11.30;10.18;;;;;;;;;;5019566;28;20034;-72
2023/07/25 04:37:57;;;;;;;11.82;10.75;;;;;;;;;;5018760;28;20084;-72
2023/07/25 04:40:24;;;;;;;11.00;10.25;;;;;;;;;;5003741;28;20401;-72
2023/07/25 04:42:50;;;;;;;11.32;10.43;;;;;;;;;;5004477;28;20034;-72
2023/07/25 04:45:16;;;;;;;11.75;10.73;;;;;;;;;;5004648;28;20046;-72
2023/07/25 04:47:41;;;;;;;11.02;10.13;;;;;;;;;;5002938;28;20041;-72
2023/07/25 04:50:07;;;;;;;11.70;10.80;;;;;;;;;;5004401;28;20045;-72
2023/07/25 04:52:34;;;;;;;10.93;10.13;;;;;;;;;;5005041;28;20034;-72
2023/07/25 04:54:59;;;;;;;11.48;10.48;;;;;;;;;;5005035;28;20049;-72
2023/07/25 04:57:25;;;;;;;11.20;10.18;;;;;;;;;;5004507;28;20075;-72
2023/07/25 04:59:51;;;;;;;11.20;10.25;;;;;;;;;;5004119;28;20531;-72
2023/07/25 05:02:19;;;;;;;11.25;10.45;;;;;;;;;;5005551;28;20074;-72
2023/07/25 05:04:44;;;;;;;12.00;10.80;;;;;;;;;;5005124;28;20045;-72
2023/07/25 05:07:10;;;;;;;12.13;11.02;;;;;;;;;;5005844;28;20033;-72
2023/07/25 05:09:36;;;;;;;11.98;10.88;;;;;;;;;;5004611;28;20037;-72
2023/07/25 05:12:04;;;;;;;11.50;10.48;;;;;;;;;;5005914;28;20489;-72
2023/07/25 05:14:30;;;;;;;11.32;10.52;;;;;;;;;;5003148;28;20048;-72
2023/07/25 05:16:56;;;;;;;11.73;10.73;;;;;;;;;;5005415;28;20724;-72
2023/07/25 05:19:21;;;;;;;11.77;10.75;;;;;;;;;;5005393;28;20116;-72
2023/07/25 05:21:47;;;;;;;11.68;10.57;;;;;;;;;;5012240;28;20101;-72
2023/07/25 05:24:14;;;;;;;12.05;10.95;;;;;;;;;;5009409;28;20038;-72
2023/07/25 05:26:41;;;;;;;13.27;10.80;;;;;;;;;;5005974;28;20160;-72
2023/07/25 05:29:07;;;;;;;12.40;10.68;;;;;;;;;;5005492;28;20034;-72
2023/07/25 05:31:33;;;;;;;11.60;10.70;;;;;;;;;;5001768;28;20509;-72
2023/07/25 05:33:59;;;;;;;11.48;10.57;;;;;;;;;;5005522;28;20038;-72
2023/07/25 05:36:24;;;;;;;11.80;10.88;;;;;;;;;;5005169;28;20581;-72
2023/07/25 05:38:50;;;;;;;12.05;10.98;;;;;;;;;;5004746;28;20510;-73
2023/07/25 05:41:16;;;;;;;12.13;11.02;;;;;;;;;;5004547;28;20044;-73
2023/07/25 05:43:41;;;;;;;12.25;11.15;;;;;;;;;;5004218;28;20040;-73
2023/07/25 05:46:08;;;;;;;12.13;10.82;;;;;;;;;;5005616;28;20092;-73
2023/07/25 05:48:34;;;;;;;13.02;11.75;;;;;;;;;;5006452;28;20120;-72
2023/07/25 05:50:59;;;;;;;11.95;11.05;;;;;;;;;;5004551;28;20164;-72
2023/07/25 05:53:25;;;;;;;12.27;11.23;;;;;;;;;;5005392;28;20037;-72
2023/07/25 05:55:50;;;;;;;11.70;10.80;;;;;;;;;;5005644;28;20135;-73
2023/07/25 05:58:17;;;;;;;12.02;11.02;;;;;;;;;;5005147;28;20026;-72
2023/07/25 06:00:44;;;;;;;12.55;11.40;;;;;;;;;;5002924;28;20069;-73
2023/07/25 06:03:12;;;;;;;11.77;10.88;;;;;;;;;;5005183;28;20117;-72
2023/07/25 06:05:38;;;;;;;12.63;11.60;;;;;;;;;;5005241;28;20066;-73
2023/07/25 06:08:04;;;;;;;12.48;11.40;;;;;;;;;;5005270;28;20554;-72
2023/07/25 06:10:30;;;;;;;12.38;11.25;;;;;;;;;;5004188;28;20055;-73
2023/07/25 06:12:55;;;;;;;13.57;12.38;;;;;;;;;;5005389;28;20041;-73
2023/07/25 06:15:21;;;;;;;12.80;11.57;;;;;;;;;;5007482;28;20045;-73
2023/07/25 06:17:46;;;;;;;11.75;10.75;;;;;;;;;;5009115;28;20037;-73
2023/07/25 06:20:12;;;;;;;12.35;11.25;;;;;;;;;;5007177;28;20099;-73
2023/07/25 06:22:38;;;;;;;12.57;11.43;;;;;;;;;;5007903;28;20038;-72
2023/07/25 06:25:07;;;;;;;12.13;10.93;;;;;;;;;;5008686;28;20040;-73
2023/07/25 06:27:33;;;;;;;13.88;11.63;;;;;;;;;;5009011;28;20034;-73
2023/07/25 06:30:00;;;;;;;12.57;11.48;;;;;;;;;;5002964;28;20030;-73
2023/07/25 06:32:25;;;;;;;12.82;11.65;;;;;;;;;;5007351;28;20053;-72
2023/07/25 06:34:51;;;;;;;12.50;11.27;;;;;;;;;;5007397;28;20033;-73
2023/07/25 06:37:17;;;;;;;12.25;11.25;;;;;;;;;;5007795;28;20037;-73
2023/07/25 06:39:42;;;;;;;12.18;11.27;;;;;;;;;;5002395;28;20034;-73
2023/07/25 06:42:08;;;;;;;12.45;11.45;;;;;;;;;;5008216;28;20037;-73
2023/07/25 06:44:35;;;;;;;15.15;11.82;;;;;;;;;;5007711;28;20038;-73
2023/07/25 06:47:01;;;;;;;12.82;11.82;;;;;;;;;;5007122;28;20042;-73
2023/07/25 06:49:26;;;;;;;12.65;11.55;;;;;;;;;;5006473;28;20041;-73
2023/07/25 06:51:55;;;;;;;13.00;11.90;;;;;;;;;;5008282;28;20034;-73
2023/07/25 06:54:21;;;;;;;12.68;11.65;;;;;;;;;;5002122;28;20042;-73
2023/07/25 06:56:47;;;;;;;12.32;11.13;;;;;;;;;;5003611;28;20033;-73
2023/07/25 06:59:13;;;;;;;12.52;11.18;;;;;;;;;;5011857;28;20057;-73
2023/07/25 07:01:38;;;;;;;12.60;11.40;;;;;;;;;;5011261;28;20125;-73
2023/07/25 07:04:04;;;;;;;12.43;11.25;;;;;;;;;;5006287;28;20046;-73
2023/07/25 07:06:30;;;;;;;12.95;11.75;;;;;;;;;;5005942;28;20408;-73
2023/07/25 07:08:55;;;;;;;13.23;11.95;;;;;;;;;;5004645;28;20049;-73
2023/07/25 07:11:21;;;;;;;13.40;12.18;;;;;;;;;;5007229;28;20037;-73
2023/07/25 07:13:46;;;;;;;12.88;11.55;;;;;;;;;;5009963;28;20044;-73
2023/07/25 07:16:12;;;;;;;12.68;11.55;;;;;;;;;;5007792;28;20053;-73
2023/07/25 07:18:37;;;;;;;13.48;12.40;;;;;;;;;;5006544;28;20402;-73
2023/07/25 07:21:03;;;;;;;13.32;12.23;;;;;;;;;;5006144;28;20042;-73
2023/07/25 07:23:29;;;;;;;13.48;12.23;;;;;;;;;;5008243;28;20029;-73
2023/07/25 07:25:54;;;;;;;12.77;11.57;;;;;;;;;;5002723;28;20099;-73
2023/07/25 07:28:20;;;;;;;13.25;11.93;;;;;;;;;;5011648;28;20042;-73
2023/07/25 07:30:49;;;;;;;13.65;12.45;;;;;;;;;;5007461;28;20056;-73
2023/07/25 07:33:16;;;;;;;13.75;12.45;;;;;;;;;;5007758;28;20033;-74
2023/07/25 07:35:42;;;;;;;13.70;12.48;;;;;;;;;;5006716;28;20167;-72
2023/07/25 07:38:07;;;;;;;12.35;11.35;;;;;;;;;;5001909;28;20117;-73
2023/07/25 07:40:35;;;;;;;13.15;11.88;;;;;;;;;;5005640;28;20037;-74
2023/07/25 07:43:00;;;;;;;13.23;11.88;;;;;;;;;;5007157;28;20042;-74
2023/07/25 07:45:27;;;;;;;15.43;11.73;;;;;;;;;;5006117;28;20048;-74
2023/07/25 07:47:53;;;;;;;14.82;13.32;;;;;;;;;;5006476;28;20045;-75
2023/07/25 07:50:19;;;;;;;15.25;13.77;;;;;;;;;;5008686;28;20156;-75
2023/07/25 07:52:45;;;;;;;15.93;14.20;;;;;;;;;;5007923;28;20114;-74
2023/07/25 07:55:12;;;;;;;16.15;14.65;;;;;;;;;;5007680;28;20049;-74
2023/07/25 07:57:42;;;;;;;14.68;13.27;;;;;;;;;;5006170;28;20045;-74
2023/07/25 08:00:09;;;;;;;15.88;14.38;;;;;;;;;;5006852;28;20125;-73
2023/07/25 08:02:37;;;;;;;14.82;13.82;;;;;;;;;;5007277;28;20123;-73
2023/07/25 08:05:03;;;;;;;14.77;13.35;;;;;;;;;;5007599;28;20064;-74
2023/07/25 08:07:30;;;;;;;13.90;12.60;;;;;;;;;;5005946;28;20497;-74
2023/07/25 08:09:56;;;;;;;12.95;11.90;;;;;;;;;;5007050;28;20037;-73
2023/07/25 08:12:22;;;;;;;13.63;12.50;;;;;;;;;;5006874;28;20120;-73
2023/07/25 08:14:48;;;;;;;13.00;11.77;;;;;;;;;;5006031;28;20175;-73
2023/07/25 08:17:14;;;;;;;13.70;12.60;;;;;;;;;;5006816;28;20108;-73
2023/07/25 08:19:40;;;;;;;12.77;11.80;;;;;;;;;;5005451;28;20080;-73
2023/07/25 08:22:05;;;;;;;13.80;12.70;;;;;;;;;;5005106;28;20155;-73
2023/07/25 08:24:34;;;;;;;13.40;12.30;;;;;;;;;;5005738;28;20056;-73
2023/07/25 08:27:00;;;;;;;13.57;12.43;;;;;;;;;;5008304;28;20127;-73
2023/07/25 08:29:26;;;;;;;12.85;11.85;;;;;;;;;;5011734;28;20496;-73
2023/07/25 08:31:52;;;;;;;13.43;12.23;;;;;;;;;;5005212;28;20041;-73
2023/07/25 08:34:17;;;;;;;12.95;11.98;;;;;;;;;;5006336;28;20084;-73
2023/07/25 08:36:43;;;;;;;13.40;12.20;;;;;;;;;;5006145;28;20037;-73
2023/07/25 08:39:09;;;;;;;12.80;11.80;;;;;;;;;;5005787;28;20405;-72
2023/07/25 08:41:47;;;;;;;12.68;11.77;;;;;;;;;;5005196;28;20033;-73
2023/07/25 08:44:16;;;;;;;13.32;12.27;;;;;;;;;;5003442;28;20065;-73
2023/07/25 08:46:45;;;;;;;13.33;12.17;;;;;;;;;;5006770;28;20088;-73
2023/07/25 08:49:13;;;;;;;;;;;;;;;;;;5002369;28;20296;-73
2023/07/25 08:51:41;;;;;;;12.43;11.52;;;;;;;;;;5006800;28;19917;-73
2023/07/25 08:54:16;;;;;;;12.80;11.70;;;;;;;;;;5006611;28;20033;-74
2023/07/25 08:56:42;;;;;;;12.77;11.77;;;;;;;;;;5003747;28;20034;-74
2023/07/25 08:59:10;;;;;;;12.68;11.50;;;;;;;;;;5003789;28;20041;-74
2023/07/25 09:01:36;;;;;;;12.13;11.15;;;;;;;;;;5005815;28;20121;-73
2023/07/25 09:04:03;;;;;;;12.50;11.48;;;;;;;;;;5004978;28;20045;-73
2023/07/25 09:06:30;;;;;;;11.73;10.93;;;;;;;;;;5003166;28;20034;-73
2023/07/25 09:08:56;;;;;;;13.00;12.05;;;;;;;;;;5001621;28;20042;-74
2023/07/25 09:11:21;;;;;;;12.23;11.32;;;;;;;;;;5004581;28;20048;-74
2023/07/25 09:13:50;;;;;;;12.00;10.85;;;;;;;;;;5007596;28;20042;-73
2023/07/25 09:16:15;;;;;;;11.95;11.15;;;;;;;;;;5005274;28;20038;-73
2023/07/25 09:18:42;;;;;;;10.70;10.00;;;;;;;;;;5004841;28;20034;-73
2023/07/25 09:21:08;;;;;;;11.60;10.60;;;;;;;;;;5004653;28;20486;-73
2023/07/25 09:23:34;;;;;;;11.48;10.68;;;;;;;;;;5004015;28;20034;-73
2023/07/25 09:26:10;;;;;;;12.18;11.27;;;;;;;;;;4988083;28;20129;-73
2023/07/25 09:28:46;;;;;;;11.52;10.82;;;;;;;;;;5002868;28;20549;-73
2023/07/25 09:31:12;;;;;;;10.75;9.95;;;;;;;;;;5003228;28;20056;-73
2023/07/25 09:33:38;;;;;;;10.73;9.95;;;;;;;;;;5004226;28;20491;-73
2023/07/25 09:36:05;;;;;;;10.35;9.65;;;;;;;;;;5005253;28;20049;-73
2023/07/25 09:38:32;;;;;;;10.38;9.68;;;;;;;;;;5005565;28;20034;-73
2023/07/25 09:40:58;;;;;;;10.70;9.80;;;;;;;;;;5004747;28;20121;-73
2023/07/25 09:43:24;;;;;;;10.77;10.10;;;;;;;;;;5005573;28;20144;-73
2023/07/25 09:45:54;;;;;;;9.77;9.10;;;;;;;;;;5005454;28;20502;-73
2023/07/25 09:48:21;;;;;;;10.52;9.73;;;;;;;;;;5005049;28;20120;-73
2023/07/25 09:50:47;;;;;;;10.23;9.57;;;;;;;;;;4968888;28;20568;-74
2023/07/25 09:53:16;;;;;;;10.02;9.32;;;;;;;;;;4972467;28;20161;-73
2023/07/25 09:55:42;;;;;;;9.90;9.20;;;;;;;;;;5000385;28;20042;-73
2023/07/25 09:58:09;;;;;;;9.85;9.23;;;;;;;;;;4970739;28;20045;-73
2023/07/25 10:00:35;;;;;;;9.40;8.80;;;;;;;;;;5005088;28;20066;-72
2023/07/25 10:03:01;;;;;;;9.90;9.20;;;;;;;;;;5005342;28;20116;-74
2023/07/25 10:05:30;;;;;;;9.80;9.00;;;;;;;;;;5004957;28;20069;-74
2023/07/25 10:07:57;;;;;;;;;;;;;;;;;;5004296;28;20042;-73
2023/07/25 10:10:23;;;;;;;9.18;8.55;;;;;;;;;;5004368;28;20007;-73
2023/07/25 10:12:49;;;;;;;9.30;8.50;;;;;;;;;;5005050;28;20030;-73
2023/07/25 10:15:14;;;;;;;9.63;9.02;;;;;;;;;;5004776;28;20029;-74
2023/07/25 10:17:40;;;;;;;9.63;9.02;;;;;;;;;;5003307;28;20038;-74
2023/07/25 10:20:07;;;;;;;9.93;9.15;;;;;;;;;;4986906;28;20405;-73
2023/07/25 10:22:44;;;;;;;8.93;8.30;;;;;;;;;;5002569;28;20409;-72
2023/07/25 10:25:17;;;;;;;9.57;8.95;;;;;;;;;;5021136;28;20091;-75
2023/07/25 10:27:43;;;;;;;9.00;8.30;;;;;;;;;;5001939;28;20701;-73
2023/07/25 10:30:23;;;;;;;9.45;8.75;;;;;;;;;;5004367;28;20048;-73
2023/07/25 10:32:51;;;;;;;9.35;8.57;;;;;;;;;;4988669;28;20129;-72
2023/07/25 10:35:42;;;;;;;9.30;8.60;;;;;;;;;;5004910;28;20062;-73
2023/07/25 10:38:10;;;;;;;9.48;8.82;;;;;;;;;;5006175;28;20038;-73
2023/07/25 10:41:00;;;;;;;9.52;8.85;;;;;;;;;;5002423;28;20029;-73
2023/07/25 10:43:51;;;;;;;9.90;9.10;;;;;;;;;;5003751;28;20044;-73
2023/07/25 10:46:30;;;;;;;9.80;9.00;;;;;;;;;;5002658;28;20037;-73
2023/07/25 10:48:59;;;;;;;9.38;8.73;;;;;;;;;;5000533;28;20141;-73
2023/07/25 10:51:46;;;;;;;9.60;9.00;;;;;;;;;;5003368;28;20579;-73
2023/07/25 10:54:12;;;;;;;10.20;9.40;;;;;;;;;;5003103;28;20505;-73
2023/07/25 10:56:39;;;;;;;10.25;9.65;;;;;;;;;;5005019;28;20042;-73
2023/07/25 10:59:12;;;;;;;10.75;9.90;;;;;;;;;;5008832;28;20045;-73
2023/07/25 11:01:47;;;;;;;9.95;9.27;;;;;;;;;;5011191;28;20053;-73
2023/07/25 11:04:25;;;;;;;9.88;9.27;;;;;;;;;;5010408;28;20563;-73
2023/07/25 11:06:56;;;;;;;11.18;10.48;;;;;;;;;;5009157;28;20052;-72
2023/07/25 11:09:23;;;;;;;9.95;9.15;;;;;;;;;;4990044;28;20049;-73
2023/07/25 11:11:50;;;;;;;9.98;9.38;;;;;;;;;;5009072;28;20030;-73
2023/07/25 11:14:17;;;;;;;9.55;8.95;;;;;;;;;;5007531;28;20064;-72
2023/07/25 11:16:46;;;;;;;9.75;9.05;;;;;;;;;;5009464;28;20098;-72
2023/07/25 11:19:14;;;;;;;10.05;9.45;;;;;;;;;;5008544;28;20528;-72
2023/07/25 11:21:41;;;;;;;9.85;9.15;;;;;;;;;;5009436;28;20510;-72
2023/07/25 11:24:08;;;;;;;11.02;10.32;;;;;;;;;;5008959;28;20041;-73
2023/07/25 11:26:37;;;;;;;10.32;9.73;;;;;;;;;;5007342;28;20052;-73
2023/07/25 11:29:07;;;;;;;10.18;9.48;;;;;;;;;;5007442;28;20053;-73
2023/07/25 11:31:35;;;;;;;10.75;9.82;;;;;;;;;;5007283;28;20116;-73
2023/07/25 11:34:09;;;;;;;10.45;9.55;;;;;;;;;;5009357;28;20029;-73
2023/07/25 11:36:41;;;;;;;10.38;9.48;;;;;;;;;;5009206;28;20521;-73
2023/07/25 11:39:08;;;;;;;10.25;9.45;;;;;;;;;;5008106;28;20513;-74
2023/07/25 11:41:38;;;;;;;9.88;9.27;;;;;;;;;;5009023;28;20038;-73
2023/07/25 11:44:09;;;;;;;9.80;9.20;;;;;;;;;;5009322;28;20060;-73
2023/07/25 11:46:35;;;;;;;9.73;9.10;;;;;;;;;;5009102;28;20041;-73
2023/07/25 11:49:01;;;;;;;9.50;8.90;;;;;;;;;;5005996;28;20062;-73
2023/07/25 11:51:27;;;;;;;9.90;9.15;;;;;;;;;;5007533;28;20052;-73
2023/07/25 11:53:54;;;;;;;9.45;8.75;;;;;;;;;;5008651;28;20509;-73
2023/07/25 11:56:20;;;;;;;9.27;8.57;;;;;;;;;;5008137;28;20553;-73
2023/07/25 11:58:48;;;;;;;9.30;8.80;;;;;;;;;;5008668;28;20152;-73
2023/07/25 12:01:14;;;;;;;9.70;9.00;;;;;;;;;;5008813;28;20083;-73
2023/07/25 12:03:47;;;;;;;9.70;8.95;;;;;;;;;;5008526;28;20160;-73
2023/07/25 12:06:13;;;;;;;9.68;9.07;;;;;;;;;;5007337;28;20034;-73
2023/07/25 12:08:45;;;;;;;9.68;9.07;;;;;;;;;;5008378;28;20502;-73
2023/07/25 12:11:13;;;;;;;9.80;9.10;;;;;;;;;;5002727;28;20125;-73
2023/07/25 12:13:42;;;;;;;9.77;9.02;;;;;;;;;;5007307;28;20038;-73
2023/07/25 12:16:08;;;;;;;9.95;9.15;;;;;;;;;;5008923;28;20057;-73
2023/07/25 12:18:37;;;;;;;9.60;9.00;;;;;;;;;;5008688;28;20569;-73
2023/07/25 12:21:04;;;;;;;9.80;9.10;;;;;;;;;;5007494;28;20393;-73
2023/07/25 12:23:38;;;;;;;10.40;9.70;;;;;;;;;;5007120;28;20046;-73
2023/07/25 12:26:04;;;;;;;9.60;9.00;;;;;;;;;;5007284;28;20034;-73
2023/07/25 12:28:44;;;;;;;9.55;8.95;;;;;;;;;;5007249;28;20073;-72
2023/07/25 12:31:10;;;;;;;9.48;8.88;;;;;;;;;;5006992;28;20428;-73
2023/07/25 12:33:36;;;;;;;9.05;8.55;;;;;;;;;;5007374;28;20042;-73
2023/07/25 12:36:02;;;;;;;9.85;9.20;;;;;;;;;;5007266;28;20042;-73
2023/07/25 12:38:27;;;;;;;10.02;9.50;;;;;;;;;;5007139;28;20030;-72
2023/07/25 12:40:53;;;;;;;10.25;9.38;;;;;;;;;;5005868;28;20033;-72
2023/07/25 12:43:19;;;;;;;10.00;9.40;;;;;;;;;;5006744;28;20047;-73
2023/07/25 12:45:45;;;;;;;9.57;9.07;;;;;;;;;;5007182;28;20022;-73
2023/07/25 12:48:11;;;;;;;9.60;8.98;;;;;;;;;;5003848;28;20072;-73
2023/07/25 12:50:39;;;;;;;9.70;9.10;;;;;;;;;;5007203;28;20563;-73
2023/07/25 12:53:08;;;;;;;9.73;9.13;;;;;;;;;;5006118;28;20065;-73
2023/07/25 12:55:34;;;;;;;10.00;9.23;;;;;;;;;;5006440;28;20092;-72
2023/07/25 12:58:00;;;;;;;9.43;8.88;;;;;;;;;;5006690;28;20072;-72
2023/07/25 13:00:26;;;;;;;9.77;9.18;;;;;;;;;;5007804;28;20040;-73
2023/07/25 13:02:52;;;;;;;9.90;9.30;;;;;;;;;;5010487;28;20038;-72
2023/07/25 13:05:17;;;;;;;10.13;9.52;;;;;;;;;;5014877;28;20061;-73
2023/07/25 13:07:43;;;;;;;9.63;9.02;;;;;;;;;;5004354;28;20026;-73
2023/07/25 13:10:10;;;;;;;10.50;9.90;;;;;;;;;;5001386;28;20049;-73
2023/07/25 13:12:39;;;;;;;9.82;9.23;;;;;;;;;;5001395;28;20042;-73
2023/07/25 13:15:05;;;;;;;;;;;;;;;;;;5002155;28;20144;-73
2023/07/25 13:17:32;;;;;;;10.15;9.55;;;;;;;;;;5004187;28;20436;-73
2023/07/25 13:19:58;;;;;;;10.00;9.40;;;;;;;;;;5000315;28;20410;-72
2023/07/25 13:22:23;;;;;;;10.45;9.77;;;;;;;;;;5003200;28;20045;-72
2023/07/25 13:24:51;;;;;;;9.68;9.07;;;;;;;;;;4999747;28;20045;-73
2023/07/25 13:27:20;;;;;;;9.90;9.20;;;;;;;;;;5002698;28;20046;-73
2023/07/25 13:29:45;;;;;;;10.48;9.75;;;;;;;;;;5002083;28;20084;-72
2023/07/25 13:32:11;;;;;;;9.60;9.00;;;;;;;;;;4998919;28;20044;-72
2023/07/25 13:34:36;;;;;;;9.77;9.23;;;;;;;;;;4999749;28;20048;-72
2023/07/25 13:37:02;;;;;;;9.43;8.93;;;;;;;;;;5000707;28;20025;-72
2023/07/25 13:39:27;;;;;;;9.90;9.30;;;;;;;;;;5001527;28;20695;-72
2023/07/25 13:41:53;;;;;;;9.77;9.18;;;;;;;;;;5001174;28;20038;-72
2023/07/25 13:44:18;;;;;;;9.57;9.00;;;;;;;;;;5003160;28;20447;-73
2023/07/25 13:46:45;;;;;;;9.70;9.00;;;;;;;;;;5013820;28;20124;-72
2023/07/25 13:49:11;;;;;;;9.25;8.65;;;;;;;;;;5001146;28;20065;-72
2023/07/25 13:51:37;;;;;;;9.32;8.82;;;;;;;;;;5002188;28;20520;-73
2023/07/25 13:54:02;;;;;;;9.48;8.98;;;;;;;;;;5002593;28;20041;-72
2023/07/25 13:56:28;;;;;;;9.32;8.73;;;;;;;;;;5001650;28;20044;-73
2023/07/25 13:58:53;;;;;;;9.30;8.80;;;;;;;;;;4996163;28;20034;-72
2023/07/25 14:01:19;;;;;;;9.50;8.90;;;;;;;;;;4998755;28;20109;-73
2023/07/25 14:03:45;;;;;;;9.57;8.98;;;;;;;;;;4995616;28;20044;-72
2023/07/25 14:06:11;;;;;;;9.02;8.43;;;;;;;;;;4997909;28;20775;-73
2023/07/25 14:08:36;;;;;;;10.00;9.20;;;;;;;;;;4999868;28;20601;-72
2023/07/25 14:11:02;;;;;;;9.48;8.68;;;;;;;;;;5001808;28;20515;-73
2023/07/25 14:13:27;;;;;;;8.75;8.25;;;;;;;;;;5001279;28;20549;-73
2023/07/25 14:15:54;;;;;;;9.00;8.40;;;;;;;;;;4982962;28;20048;-73
2023/07/25 14:18:20;;;;;;;9.00;8.35;;;;;;;;;;5003074;28;20084;-73
2023/07/25 14:20:45;;;;;;;9.48;8.77;;;;;;;;;;5005003;28;20049;-73
2023/07/25 14:23:11;;;;;;;8.75;8.20;;;;;;;;;;5004060;28;20034;-72
2023/07/25 14:25:36;;;;;;;9.57;8.88;;;;;;;;;;5002887;28;20064;-73